sensor_id;sensor_type;location;lat;lon;timestamp;temperature;humidity
44435;DHT22;30138;20.964;105.830;2023-05-07T00:04:15;33.30;99.90
44435;DHT22;30138;20.964;105.830;2023-05-07T00:09:22;33.30;99.90
44435;DHT22;30138;20.964;105.830;2023-05-07T00:14:30;33.30;99.90
44435;DHT22;30138;20.964;105.830;2023-05-07T00:19:39;33.30;99.90
44435;DHT22;30138;20.964;105.830;2023-05-07T00:24:45;33.30;99.90
44435;DHT22;30138;20.964;105.830;2023-05-07T00:29:52;33.30;99.90
44435;DHT22;30138;20.964;105.830;2023-05-07T00:35:03;33.30;99.90
44435;DHT22;30138;20.964;105.830;2023-05-07T00:40:11;33.30;99.90
44435;DHT22;30138;20.964;105.830;2023-05-07T00:45:18;33.30;99.90
44435;DHT22;30138;20.964;105.830;2023-05-07T00:50:26;33.30;99.90
44435;DHT22;30138;20.964;105.830;2023-05-07T00:55:34;33.30;99.90
44435;DHT22;30138;20.964;105.830;2023-05-07T01:00:42;33.30;99.90
44435;DHT22;30138;20.964;105.830;2023-05-07T01:05:52;33.30;99.90
44435;DHT22;30138;20.964;105.830;2023-05-07T01:11:01;33.30;99.90
44435;DHT22;30138;20.964;105.830;2023-05-07T01:16:09;33.30;99.90
44435;DHT22;30138;20.964;105.830;2023-05-07T01:21:19;33.20;99.90
44435;DHT22;30138;20.964;105.830;2023-05-07T01:32:32;33.20;99.90
44435;DHT22;30138;20.964;105.830;2023-05-07T01:37:41;33.20;99.90
44435;DHT22;30138;20.964;105.830;2023-05-07T01:42:50;33.30;99.90
44435;DHT22;30138;20.964;105.830;2023-05-07T01:47:58;33.30;99.90
44435;DHT22;30138;20.964;105.830;2023-05-07T01:53:05;33.30;99.90
44435;DHT22;30138;20.964;105.830;2023-05-07T01:58:15;33.20;99.90
44435;DHT22;30138;20.964;105.830;2023-05-07T02:03:22;33.30;99.90
44435;DHT22;30138;20.964;105.830;2023-05-07T02:08:38;33.30;99.90
44435;DHT22;30138;20.964;105.830;2023-05-07T02:13:49;33.30;99.90
44435;DHT22;30138;20.964;105.830;2023-05-07T02:18:55;33.30;99.90
44435;DHT22;30138;20.964;105.830;2023-05-07T02:24:03;33.30;99.90
44435;DHT22;30138;20.964;105.830;2023-05-07T02:29:14;33.40;99.90
44435;DHT22;30138;20.964;105.830;2023-05-07T02:34:20;33.30;99.90
44435;DHT22;30138;20.964;105.830;2023-05-07T02:39:27;33.40;99.90
44435;DHT22;30138;20.964;105.830;2023-05-07T02:44:35;33.40;99.90
44435;DHT22;30138;20.964;105.830;2023-05-07T02:49:42;33.40;99.90
44435;DHT22;30138;20.964;105.830;2023-05-07T02:54:50;33.50;99.90
44435;DHT22;30138;20.964;105.830;2023-05-07T02:59:59;33.50;99.90
44435;DHT22;30138;20.964;105.830;2023-05-07T03:05:21;33.60;99.90
44435;DHT22;30138;20.964;105.830;2023-05-07T03:10:28;33.60;99.90
44435;DHT22;30138;20.964;105.830;2023-05-07T03:15:36;33.60;99.90
44435;DHT22;30138;20.964;105.830;2023-05-07T03:20:43;33.60;99.90
44435;DHT22;30138;20.964;105.830;2023-05-07T03:25:51;33.60;99.90
44435;DHT22;30138;20.964;105.830;2023-05-07T03:31:00;33.70;99.90
44435;DHT22;30138;20.964;105.830;2023-05-07T03:36:08;33.70;99.90
44435;DHT22;30138;20.964;105.830;2023-05-07T03:41:14;33.70;99.90
44435;DHT22;30138;20.964;105.830;2023-05-07T03:46:24;33.70;99.90
44435;DHT22;30138;20.964;105.830;2023-05-07T03:51:31;33.70;99.90
44435;DHT22;30138;20.964;105.830;2023-05-07T03:56:40;33.80;99.90
44435;DHT22;30138;20.964;105.830;2023-05-07T04:01:50;33.80;99.90
44435;DHT22;30138;20.964;105.830;2023-05-07T04:06:59;33.80;99.90
44435;DHT22;30138;20.964;105.830;2023-05-07T04:12:13;33.80;99.90
44435;DHT22;30138;20.964;105.830;2023-05-07T04:17:23;33.80;99.90
44435;DHT22;30138;20.964;105.830;2023-05-07T04:22:30;33.80;99.90
44435;DHT22;30138;20.964;105.830;2023-05-07T04:27:37;33.90;99.90
44435;DHT22;30138;20.964;105.830;2023-05-07T04:32:46;33.90;99.90
44435;DHT22;30138;20.964;105.830;2023-05-07T04:37:53;33.90;99.90
44435;DHT22;30138;20.964;105.830;2023-05-07T04:42:59;34.00;99.90
44435;DHT22;30138;20.964;105.830;2023-05-07T04:48:11;34.00;99.90
44435;DHT22;30138;20.964;105.830;2023-05-07T04:53:19;34.00;99.90
44435;DHT22;30138;20.964;105.830;2023-05-07T04:58:29;34.00;99.90
44435;DHT22;30138;20.964;105.830;2023-05-07T05:03:37;34.00;99.90
44435;DHT22;30138;20.964;105.830;2023-05-07T05:08:44;34.00;99.90
44435;DHT22;30138;20.964;105.830;2023-05-07T05:13:51;34.00;99.90
44435;DHT22;30138;20.964;105.830;2023-05-07T05:19:01;34.10;99.90
44435;DHT22;30138;20.964;105.830;2023-05-07T05:24:10;34.10;99.90
44435;DHT22;30138;20.964;105.830;2023-05-07T05:29:19;34.10;99.90
44435;DHT22;30138;20.964;105.830;2023-05-07T05:34:35;34.10;99.90
44435;DHT22;30138;20.964;105.830;2023-05-07T05:39:43;34.10;99.90
44435;DHT22;30138;20.964;105.830;2023-05-07T05:44:50;34.20;99.90
44435;DHT22;30138;20.964;105.830;2023-05-07T05:50:01;34.20;99.90
44435;DHT22;30138;20.964;105.830;2023-05-07T05:55:10;34.20;99.90
44435;DHT22;30138;20.964;105.830;2023-05-07T06:00:17;34.20;99.90
44435;DHT22;30138;20.964;105.830;2023-05-07T06:05:35;34.20;99.90
44435;DHT22;30138;20.964;105.830;2023-05-07T06:10:43;34.20;99.90
44435;DHT22;30138;20.964;105.830;2023-05-07T06:15:50;34.20;99.90
44435;DHT22;30138;20.964;105.830;2023-05-07T06:20:59;34.30;99.90
44435;DHT22;30138;20.964;105.830;2023-05-07T06:26:09;34.30;99.90
44435;DHT22;30138;20.964;105.830;2023-05-07T06:31:19;34.30;99.90
44435;DHT22;30138;20.964;105.830;2023-05-07T06:36:39;34.30;99.90
44435;DHT22;30138;20.964;105.830;2023-05-07T06:42:25;34.30;99.90
44435;DHT22;30138;20.964;105.830;2023-05-07T06:47:36;34.40;99.90
44435;DHT22;30138;20.964;105.830;2023-05-07T06:52:46;34.40;99.90
44435;DHT22;30138;20.964;105.830;2023-05-07T06:57:52;34.40;99.90
44435;DHT22;30138;20.964;105.830;2023-05-07T07:03:02;34.50;99.90
44435;DHT22;30138;20.964;105.830;2023-05-07T07:08:12;34.50;99.90
44435;DHT22;30138;20.964;105.830;2023-05-07T07:13:21;34.50;99.90
44435;DHT22;30138;20.964;105.830;2023-05-07T07:18:28;34.50;99.90
44435;DHT22;30138;20.964;105.830;2023-05-07T07:23:37;34.50;99.90
44435;DHT22;30138;20.964;105.830;2023-05-07T07:28:45;34.50;99.90
44435;DHT22;30138;20.964;105.830;2023-05-07T07:33:56;34.60;99.90
44435;DHT22;30138;20.964;105.830;2023-05-07T07:39:05;34.60;99.90
44435;DHT22;30138;20.964;105.830;2023-05-07T07:44:13;34.60;99.90
44435;DHT22;30138;20.964;105.830;2023-05-07T07:49:25;34.60;99.90
44435;DHT22;30138;20.964;105.830;2023-05-07T07:54:38;34.70;99.90
44435;DHT22;30138;20.964;105.830;2023-05-07T07:59:45;34.70;99.90
44435;DHT22;30138;20.964;105.830;2023-05-07T08:04:53;34.70;99.90
44435;DHT22;30138;20.964;105.830;2023-05-07T08:10:03;34.70;99.90
44435;DHT22;30138;20.964;105.830;2023-05-07T08:15:11;34.70;99.90
44435;DHT22;30138;20.964;105.830;2023-05-07T08:20:18;34.70;99.90
44435;DHT22;30138;20.964;105.830;2023-05-07T08:25:26;34.80;99.90
44435;DHT22;30138;20.964;105.830;2023-05-07T08:30:34;34.80;99.90
44435;DHT22;30138;20.964;105.830;2023-05-07T08:35:42;34.80;99.90
44435;DHT22;30138;20.964;105.830;2023-05-07T08:40:52;34.80;99.90
44435;DHT22;30138;20.964;105.830;2023-05-07T08:46:01;34.80;99.90
44435;DHT22;30138;20.964;105.830;2023-05-07T08:51:15;34.80;99.90
44435;DHT22;30138;20.964;105.830;2023-05-07T08:56:25;34.80;99.90
44435;DHT22;30138;20.964;105.830;2023-05-07T09:01:32;34.80;99.90
44435;DHT22;30138;20.964;105.830;2023-05-07T09:06:40;34.80;99.90
44435;DHT22;30138;20.964;105.830;2023-05-07T09:11:57;34.80;99.90
44435;DHT22;30138;20.964;105.830;2023-05-07T09:17:08;34.80;99.90
44435;DHT22;30138;20.964;105.830;2023-05-07T09:22:15;34.80;99.90
44435;DHT22;30138;20.964;105.830;2023-05-07T09:27:33;34.80;99.90
44435;DHT22;30138;20.964;105.830;2023-05-07T09:32:40;34.80;99.90
44435;DHT22;30138;20.964;105.830;2023-05-07T09:37:52;34.80;99.90
44435;DHT22;30138;20.964;105.830;2023-05-07T09:43:12;34.80;99.90
44435;DHT22;30138;20.964;105.830;2023-05-07T09:48:34;34.80;99.90
44435;DHT22;30138;20.964;105.830;2023-05-07T09:53:44;34.80;99.90
44435;DHT22;30138;20.964;105.830;2023-05-07T09:58:57;34.80;99.90
44435;DHT22;30138;20.964;105.830;2023-05-07T10:04:09;34.80;99.90
44435;DHT22;30138;20.964;105.830;2023-05-07T10:09:19;34.80;99.90
44435;DHT22;30138;20.964;105.830;2023-05-07T10:14:29;34.80;99.90
44435;DHT22;30138;20.964;105.830;2023-05-07T10:19:36;34.80;99.90
44435;DHT22;30138;20.964;105.830;2023-05-07T10:24:45;34.80;99.90
44435;DHT22;30138;20.964;105.830;2023-05-07T10:30:04;34.80;99.90
44435;DHT22;30138;20.964;105.830;2023-05-07T10:35:19;34.80;99.90
44435;DHT22;30138;20.964;105.830;2023-05-07T10:40:28;34.80;99.90
44435;DHT22;30138;20.964;105.830;2023-05-07T10:45:38;34.70;99.90
44435;DHT22;30138;20.964;105.830;2023-05-07T10:50:45;34.70;99.90
44435;DHT22;30138;20.964;105.830;2023-05-07T11:01:54;34.70;99.90
44435;DHT22;30138;20.964;105.830;2023-05-07T11:07:27;34.70;99.90
44435;DHT22;30138;20.964;105.830;2023-05-07T11:12:56;34.70;99.90
44435;DHT22;30138;20.964;105.830;2023-05-07T11:18:22;34.60;99.90
44435;DHT22;30138;20.964;105.830;2023-05-07T11:29:17;34.70;99.90
44435;DHT22;30138;20.964;105.830;2023-05-07T11:34:29;34.60;99.90
44435;DHT22;30138;20.964;105.830;2023-05-07T11:39:36;34.60;99.90
44435;DHT22;30138;20.964;105.830;2023-05-07T11:44:43;34.60;99.90
44435;DHT22;30138;20.964;105.830;2023-05-07T11:49:54;34.60;99.90
44435;DHT22;30138;20.964;105.830;2023-05-07T11:55:02;34.60;99.90
44435;DHT22;30138;20.964;105.830;2023-05-07T12:00:10;34.50;99.90
44435;DHT22;30138;20.964;105.830;2023-05-07T12:05:21;34.50;99.90
44435;DHT22;30138;20.964;105.830;2023-05-07T12:10:28;34.50;99.90
44435;DHT22;30138;20.964;105.830;2023-05-07T12:15:38;34.60;99.90
44435;DHT22;30138;20.964;105.830;2023-05-07T12:20:46;34.50;99.90
44435;DHT22;30138;20.964;105.830;2023-05-07T12:25:53;34.50;99.90
44435;DHT22;30138;20.964;105.830;2023-05-07T12:31:00;34.50;99.90
44435;DHT22;30138;20.964;105.830;2023-05-07T12:36:13;34.50;99.90
44435;DHT22;30138;20.964;105.830;2023-05-07T12:41:20;34.50;99.90
44435;DHT22;30138;20.964;105.830;2023-05-07T12:46:30;34.50;99.90
44435;DHT22;30138;20.964;105.830;2023-05-07T12:51:39;34.50;99.90
44435;DHT22;30138;20.964;105.830;2023-05-07T12:56:47;34.50;99.90
44435;DHT22;30138;20.964;105.830;2023-05-07T13:02:07;34.50;99.90
44435;DHT22;30138;20.964;105.830;2023-05-07T13:07:17;34.50;99.90
44435;DHT22;30138;20.964;105.830;2023-05-07T13:12:24;34.40;99.90
44435;DHT22;30138;20.964;105.830;2023-05-07T13:17:31;34.40;99.90
44435;DHT22;30138;20.964;105.830;2023-05-07T13:22:39;34.40;99.90
44435;DHT22;30138;20.964;105.830;2023-05-07T13:27:46;34.40;99.90
44435;DHT22;30138;20.964;105.830;2023-05-07T13:32:56;34.40;99.90
44435;DHT22;30138;20.964;105.830;2023-05-07T13:38:05;34.40;99.90
44435;DHT22;30138;20.964;105.830;2023-05-07T13:43:12;34.40;99.90
44435;DHT22;30138;20.964;105.830;2023-05-07T13:48:21;34.40;99.90
44435;DHT22;30138;20.964;105.830;2023-05-07T13:53:30;34.30;99.90
44435;DHT22;30138;20.964;105.830;2023-05-07T13:58:37;34.30;99.90
44435;DHT22;30138;20.964;105.830;2023-05-07T14:03:43;34.30;99.90
44435;DHT22;30138;20.964;105.830;2023-05-07T14:08:53;34.30;99.90
44435;DHT22;30138;20.964;105.830;2023-05-07T14:14:01;34.20;99.90
44435;DHT22;30138;20.964;105.830;2023-05-07T14:19:08;34.20;99.90
44435;DHT22;30138;20.964;105.830;2023-05-07T14:24:17;34.20;99.90
44435;DHT22;30138;20.964;105.830;2023-05-07T14:29:23;34.10;99.90
44435;DHT22;30138;20.964;105.830;2023-05-07T14:34:31;34.20;99.90
44435;DHT22;30138;20.964;105.830;2023-05-07T14:39:40;34.10;99.90
44435;DHT22;30138;20.964;105.830;2023-05-07T14:44:47;34.20;99.90
44435;DHT22;30138;20.964;105.830;2023-05-07T14:49:55;34.10;99.90
44435;DHT22;30138;20.964;105.830;2023-05-07T14:55:07;34.10;99.90
44435;DHT22;30138;20.964;105.830;2023-05-07T15:00:15;34.10;99.90
44435;DHT22;30138;20.964;105.830;2023-05-07T15:05:22;34.00;99.90
44435;DHT22;30138;20.964;105.830;2023-05-07T15:10:30;34.10;99.90
44435;DHT22;30138;20.964;105.830;2023-05-07T15:15:44;34.10;99.90
44435;DHT22;30138;20.964;105.830;2023-05-07T15:20:50;34.00;99.90
44435;DHT22;30138;20.964;105.830;2023-05-07T15:26:00;34.00;99.90
44435;DHT22;30138;20.964;105.830;2023-05-07T15:31:06;34.00;99.90
44435;DHT22;30138;20.964;105.830;2023-05-07T15:36:12;34.00;99.90
44435;DHT22;30138;20.964;105.830;2023-05-07T15:41:20;34.00;99.90
44435;DHT22;30138;20.964;105.830;2023-05-07T15:46:27;34.00;99.90
44435;DHT22;30138;20.964;105.830;2023-05-07T15:51:35;33.90;99.90
44435;DHT22;30138;20.964;105.830;2023-05-07T15:56:44;33.90;99.90
44435;DHT22;30138;20.964;105.830;2023-05-07T16:01:51;33.90;99.90
44435;DHT22;30138;20.964;105.830;2023-05-07T16:07:06;33.90;99.90
44435;DHT22;30138;20.964;105.830;2023-05-07T16:12:24;33.90;99.90
44435;DHT22;30138;20.964;105.830;2023-05-07T16:17:32;33.90;99.90
44435;DHT22;30138;20.964;105.830;2023-05-07T16:22:51;33.90;99.90
44435;DHT22;30138;20.964;105.830;2023-05-07T16:28:00;33.90;99.90
44435;DHT22;30138;20.964;105.830;2023-05-07T16:33:08;33.80;99.90
44435;DHT22;30138;20.964;105.830;2023-05-07T16:38:14;33.80;99.90
44435;DHT22;30138;20.964;105.830;2023-05-07T16:43:22;33.80;99.90
44435;DHT22;30138;20.964;105.830;2023-05-07T16:48:32;33.80;99.90
44435;DHT22;30138;20.964;105.830;2023-05-07T16:53:41;33.70;99.90
44435;DHT22;30138;20.964;105.830;2023-05-07T16:59:10;33.70;99.90
44435;DHT22;30138;20.964;105.830;2023-05-07T17:04:16;33.70;99.90
44435;DHT22;30138;20.964;105.830;2023-05-07T17:09:23;33.70;99.90
44435;DHT22;30138;20.964;105.830;2023-05-07T17:14:32;33.70;99.90
44435;DHT22;30138;20.964;105.830;2023-05-07T17:19:38;33.70;99.90
44435;DHT22;30138;20.964;105.830;2023-05-07T17:24:46;33.70;99.90
44435;DHT22;30138;20.964;105.830;2023-05-07T17:29:54;33.60;99.90
44435;DHT22;30138;20.964;105.830;2023-05-07T17:35:01;33.60;99.90
44435;DHT22;30138;20.964;105.830;2023-05-07T17:40:08;33.60;99.90
44435;DHT22;30138;20.964;105.830;2023-05-07T17:45:16;33.60;99.90
44435;DHT22;30138;20.964;105.830;2023-05-07T17:50:23;33.50;99.90
44435;DHT22;30138;20.964;105.830;2023-05-07T17:55:30;33.50;99.90
44435;DHT22;30138;20.964;105.830;2023-05-07T18:00:44;33.50;99.90
44435;DHT22;30138;20.964;105.830;2023-05-07T18:11:23;33.50;99.90
44435;DHT22;30138;20.964;105.830;2023-05-07T18:16:31;33.50;99.90
44435;DHT22;30138;20.964;105.830;2023-05-07T18:21:37;33.50;99.90
44435;DHT22;30138;20.964;105.830;2023-05-07T18:26:44;33.40;99.90
44435;DHT22;30138;20.964;105.830;2023-05-07T18:31:53;33.40;99.90
44435;DHT22;30138;20.964;105.830;2023-05-07T18:37:01;33.40;99.90
44435;DHT22;30138;20.964;105.830;2023-05-07T18:42:08;33.40;99.90
44435;DHT22;30138;20.964;105.830;2023-05-07T18:47:17;33.40;99.90
44435;DHT22;30138;20.964;105.830;2023-05-07T18:52:24;33.30;99.90
44435;DHT22;30138;20.964;105.830;2023-05-07T18:57:32;33.30;99.90
44435;DHT22;30138;20.964;105.830;2023-05-07T19:02:41;33.30;99.90
44435;DHT22;30138;20.964;105.830;2023-05-07T19:07:48;33.30;99.90
44435;DHT22;30138;20.964;105.830;2023-05-07T19:12:55;33.30;99.90
44435;DHT22;30138;20.964;105.830;2023-05-07T19:18:04;33.30;99.90
44435;DHT22;30138;20.964;105.830;2023-05-07T19:23:11;33.30;99.90
44435;DHT22;30138;20.964;105.830;2023-05-07T19:28:19;33.30;99.90
44435;DHT22;30138;20.964;105.830;2023-05-07T19:33:27;33.30;99.90
44435;DHT22;30138;20.964;105.830;2023-05-07T19:38:33;33.30;99.90
44435;DHT22;30138;20.964;105.830;2023-05-07T19:43:40;33.20;99.90
44435;DHT22;30138;20.964;105.830;2023-05-07T19:48:49;33.20;99.90
44435;DHT22;30138;20.964;105.830;2023-05-07T19:53:56;33.20;99.90
44435;DHT22;30138;20.964;105.830;2023-05-07T19:59:02;33.20;99.90
44435;DHT22;30138;20.964;105.830;2023-05-07T20:04:12;33.20;99.90
44435;DHT22;30138;20.964;105.830;2023-05-07T20:09:19;33.20;99.90
44435;DHT22;30138;20.964;105.830;2023-05-07T20:14:26;33.10;99.90
44435;DHT22;30138;20.964;105.830;2023-05-07T20:19:34;33.10;99.90
44435;DHT22;30138;20.964;105.830;2023-05-07T20:24:41;33.10;99.90
44435;DHT22;30138;20.964;105.830;2023-05-07T20:29:47;33.10;99.90
44435;DHT22;30138;20.964;105.830;2023-05-07T20:34:56;33.10;99.90
44435;DHT22;30138;20.964;105.830;2023-05-07T20:40:03;33.10;99.90
44435;DHT22;30138;20.964;105.830;2023-05-07T20:45:11;33.10;99.90
44435;DHT22;30138;20.964;105.830;2023-05-07T20:50:21;33.10;99.90
44435;DHT22;30138;20.964;105.830;2023-05-07T20:55:27;33.00;99.90
44435;DHT22;30138;20.964;105.830;2023-05-07T21:00:35;33.00;99.90
44435;DHT22;30138;20.964;105.830;2023-05-07T21:05:50;33.00;99.90
44435;DHT22;30138;20.964;105.830;2023-05-07T21:10:57;32.90;99.90
44435;DHT22;30138;20.964;105.830;2023-05-07T21:16:05;32.90;99.90
44435;DHT22;30138;20.964;105.830;2023-05-07T21:21:14;32.90;99.90
44435;DHT22;30138;20.964;105.830;2023-05-07T21:26:20;32.90;99.90
44435;DHT22;30138;20.964;105.830;2023-05-07T21:31:27;32.90;99.90
44435;DHT22;30138;20.964;105.830;2023-05-07T21:36:35;32.90;99.90
44435;DHT22;30138;20.964;105.830;2023-05-07T21:41:42;32.90;99.90
44435;DHT22;30138;20.964;105.830;2023-05-07T21:46:49;32.90;99.90
44435;DHT22;30138;20.964;105.830;2023-05-07T21:51:57;32.80;99.90
44435;DHT22;30138;20.964;105.830;2023-05-07T21:57:04;32.80;99.90
44435;DHT22;30138;20.964;105.830;2023-05-07T22:02:10;32.80;99.90
44435;DHT22;30138;20.964;105.830;2023-05-07T22:07:20;32.80;99.90
44435;DHT22;30138;20.964;105.830;2023-05-07T22:12:27;32.80;99.90
44435;DHT22;30138;20.964;105.830;2023-05-07T22:17:35;32.70;99.90
44435;DHT22;30138;20.964;105.830;2023-05-07T22:22:50;32.70;99.90
44435;DHT22;30138;20.964;105.830;2023-05-07T22:28:00;32.70;99.90
44435;DHT22;30138;20.964;105.830;2023-05-07T22:33:07;32.70;99.90
44435;DHT22;30138;20.964;105.830;2023-05-07T22:38:17;32.60;99.90
44435;DHT22;30138;20.964;105.830;2023-05-07T22:43:24;32.60;99.90
44435;DHT22;30138;20.964;105.830;2023-05-07T22:48:32;32.60;99.90
44435;DHT22;30138;20.964;105.830;2023-05-07T22:53:41;32.60;99.90
44435;DHT22;30138;20.964;105.830;2023-05-07T22:58:48;32.60;99.90
44435;DHT22;30138;20.964;105.830;2023-05-07T23:03:54;32.60;99.90
44435;DHT22;30138;20.964;105.830;2023-05-07T23:09:04;32.60;99.90
44435;DHT22;30138;20.964;105.830;2023-05-07T23:14:11;32.50;99.90
44435;DHT22;30138;20.964;105.830;2023-05-07T23:19:18;32.50;99.90
44435;DHT22;30138;20.964;105.830;2023-05-07T23:24:27;32.50;99.90
44435;DHT22;30138;20.964;105.830;2023-05-07T23:29:34;32.50;99.90
44435;DHT22;30138;20.964;105.830;2023-05-07T23:34:41;32.50;99.90
44435;DHT22;30138;20.964;105.830;2023-05-07T23:39:54;32.50;99.90
44435;DHT22;30138;20.964;105.830;2023-05-07T23:45:02;32.40;99.90
44435;DHT22;30138;20.964;105.830;2023-05-07T23:50:10;32.40;99.90
44435;DHT22;30138;20.964;105.830;2023-05-07T23:55:18;32.40;99.90
